KBMG/BMG METAR and TAF weather

Enter ICAO airport designator
Station Type Date Time Source
KBMG METAR 2019/02/23 16:53 UTC NOAA

KBMG 231653Z 12008KT 10SM OVC009 07/ A2995 RMK AO2 SLPNO T0072 $


Station Type Date Time Source
KBMG Decoded METAR 2019/02/23 16:53 UTC NOAA

MONROE COUNTY AIRPORT, IN, United States (KBMG) 39-09N 086-37W 257M
Feb 23, 2019 - 11:53 AM EST / 2019.02.23 1653 UTC
Wind: from the ESE (120 degrees) at 9 MPH (8 KT):0
Visibility: 10 mile(s):0
Sky conditions: overcast
Temperature: 44 F (7 C)
Pressure (altimeter): 29.95 in. Hg (1014 hPa)
ob: KBMG 231653Z 12008KT 10SM OVC009 07/ A2995 RMK AO2 SLPNO T0072
cycle: 17

Station Type Date Time Source
KBMG TAF 2019/02/23 13:40 UTC NOAA

TAF
AMD KBMG 231238Z 2313/2412 11010KT P6SM VCSH OVC014
FM231700 13007KT 6SM -SHRA OVC008
FM232100 15011G20KT 6SM SHRA VCTS OVC006CB
FM240200 17012G22KT 6SM SHRA VCTS OVC007CB WS020/18050KT
FM240400 21015G25KT 6SM SHRA BKN035 WS020/23045KT
FM240800 23018G31KT P6SM BKN130 WS020/23050KT
FM241100 24023G39KT P6SM BKN035 WS011/24030KT
AMD LTD TO CLD VIS AND WIND TIL 231400


Example: see airport list